Doha, Qatar

7:04 AM AST on December 19, 2014 (GMT +0300)
Wakra | Change Station
CLOSE
Current Station
Personal Weather Station
Location: Wakra, WAKRA
Elevation: 23 ft
Nearby Weather Stations

Elev 23 ft 25.17 °N, 51.60 °E | Updated 5 seconds ago

Scattered Clouds
Scattered Clouds
61.9 °F
Feels Like 61.9 °F
N
6.7
Wind Variable Wind from WNW
Gusts 6.9 mph

Today
High -- | Low -- °F
--% Chance of Precip.
Yesterday
High -- | Low -- °F
Precip. -- in
6:13 AM 4:47 PM
Waning Crescent, 10% visible
Pressure 30.25 in
Visibility 6.2 miles
Clouds Scattered Clouds 3000 ft
Scattered Clouds 20000 ft
Dew Point 52 °F
Humidity 69%
Rainfall 0.00 in
Snow Depth Not available.
UV 0 out of 12
Pollen Not available.
Air Quality Not available.
Flu Activity Not available.
METAR KQIR 190358Z 28008KT 9999 SCT030 SCT200 14/09 A3024 RMK AO2A SLP242 T01440091 $

More Conditions Fewer Conditions

Pressure 30.25 in
Visibility 6.2 miles
Clouds Scattered Clouds 3000 ft
Scattered Clouds 20000 ft
Dew Point 52 °F
Humidity 69%
Rainfall 0.00 in
Snow Depth Not available.
UV 0 out of 12
Pollen Not available.
Air Quality Not available.
Flu Activity Not available.
METAR KQIR 190358Z 28008KT 9999 SCT030 SCT200 14/09 A3024 RMK AO2A SLP242 T01440091 $

More Conditions Fewer Conditions

10-Day Weather Forecast

Almanac

Astronomy

Dec. 19, 2014 Rise Set
Actual Time
Civil Twilight
Nautical Twilight
Astronomical Twilight
Moon
Length of Visible Light
Length of Day
Tomorrow will be .
, % of the Moon is Illuminated

Today's Extremes

Country Highs Country Lows

Community

WunderPhotos

Upload Photos

1,778,989 photos uploaded!

WunderBlogs® & News

Nearby

Air Quality

  Air Quality AQ Index Pollutant
Not available.

Snow Depth

Station Depth Elevation

Earthquake Activity

City Distance Mag. Time & Date
Minimum magnitude displayed is 2.5.

Coastal Water Temperatures

Place Temperature

Nearby Weather Stations